Observations for EDINBURGH AIRPORT, United Kingdom (EGPH)

EGPH 231120Z 22010KT 9999 SCT020 BKN038 14/11 Q1009 
EGPH 231050Z 21013KT 9999 VCSH FEW018 BKN032 15/11 Q1009
EGPH 231020Z 22009KT 9999 VCSH FEW021 BKN032 15/12 Q1009
EGPH 230950Z 21005KT 160V240 9999 SCT019 14/11 Q1009
EGPH 230920Z 25004KT 200V270 9999 BKN018 14/11 Q1009
EGPH 230850Z 19006KT 160V230 9999 BKN020 13/11 Q1009
EGPH 230820Z VRB02KT 9999 FEW018 BKN046 12/10 Q1010 
EGPH 230750Z VRB03KT 9999 FEW018 SCT048 12/10 Q1010 
EGPH 230720Z VRB03KT 9999 -DZ FEW013 SCT048 11/09 Q1010 
EGPH 230650Z VRB02KT 9999 SCT045 10/08 Q1010
EGPH 230620Z VRB02KT CAVOK 10/08 Q1010  
EGPH 230550Z 04004KT CAVOK 08/07 Q1010  
EGPH 230520Z VRB03KT CAVOK 08/07 Q1011  
EGPH 230450Z 03004KT 9999 -RA NSC 08/07 Q1011   
EGPH 230420Z VRB03KT CAVOK 07/06 Q1011  
EGPH 230350Z 04002KT CAVOK 07/06 Q1011  
EGPH 230320Z VRB02KT CAVOK 07/06 Q1011  
EGPH 230250Z 04001KT CAVOK 07/06 Q1012  
EGPH 230220Z 31001KT CAVOK 07/06 Q1012  
EGPH 230150Z VRB01KT CAVOK 07/05 Q1012  
EGPH 230120Z 25004KT CAVOK 07/05 Q1012  
EGPH 230050Z 29003KT CAVOK 07/05 Q1012  
EGPH 230020Z 27004KT 240V300 CAVOK 06/05 Q1013  
EGPH 222350Z 26004KT CAVOK 06/04 Q1013  
EGPH 222320Z 28004KT CAVOK 06/04 Q1012  
EGPH 222250Z 25005KT CAVOK 05/03 Q1012  
EGPH 222220Z 23004KT 9999 FEW037 05/03 Q1012
EGPH 222150Z 25005KT 9999 FEW037 06/04 Q1012
EGPH 222120Z 26007KT 9999 FEW037 07/04 Q1012
EGPH 222050Z VRB03KT 9999 FEW037 07/04 Q1012
EGPH 222020Z 25008KT 9999 FEW035 08/05 Q1012
EGPH 221950Z 25012KT 9999 FEW035 08/05 Q1011
EGPH 221920Z 25009KT 9999 SCT038 09/06 Q1011
EGPH 221850Z 25012KT 9999 SCT030 10/06 Q1011
EGPH 221820Z 25010KT 9999 SCT033 10/07 Q1011
EGPH 221750Z 26011KT 9999 FEW033 10/07 Q1010
EGPH 221720Z 26012KT 9999 SCT025 10/07 Q1010
EGPH 221650Z 26013KT 9999 SCT025 11/07 Q1009
EGPH 221620Z AUTO 26013KT 9999 BKN026 11/07 Q1009   
EGPH 221550Z 26011KT 9999 SCT025 12/08 Q1008
EGPH 221520Z 26012KT 9999 SCT024 12/08 Q1007
EGPH 221450Z 27012KT 9999 SCT025 12/08 Q1007
EGPH 221420Z 28012KT 250V310 9999 SCT024 13/08 Q1007
EGPH 221350Z 27012KT 250V310 9999 SCT022 13/09 Q1006
EGPH 221320Z 27013KT 240V300 9999 SCT024 13/09 Q1006
EGPH 221250Z 28015KT 9999 FEW016 SCT028 13/09 Q1005 
EGPH 221220Z 27013KT 9999 SCT022 13/09 Q1005
EGPH 221150Z 28013KT 9999 FEW020 14/09 Q1004
EGPH 221120Z 28012G22KT 9999 FEW020 13/09 Q1004 
EGPH 221050Z 27011KT 240V310 9999 FEW025 13/09 Q1003